Time;durP1;ratioP1;P1;durP2;ratioP2;P2;SDS_P1;SDS_P2;PMS_P1;PMS_P2;Temp;Humidity;BMP_temperature;BMP_pressure;BME280_temperature;BME280_humidity;BME280_pressure;Samples;Min_cycle;Max_cycle;Signal;HPM_P1;HPM_P2
2023/01/15 00:00:02;;;;;;;1.17;1.07;;;20.20;45.60;;;;;;5061165;27;92136;-59
2023/01/15 00:02:31;;;;;;;2.37;1.13;;;20.20;46.20;;;;;;5060885;27;94126;-59
2023/01/15 00:05:02;;;;;;;1.23;0.80;;;20.30;45.60;;;;;;5061206;27;92612;-60
2023/01/15 00:07:30;;;;;;;0.77;0.77;;;20.20;45.60;;;;;;5060870;27;92135;-59
2023/01/15 00:09:58;;;;;;;0.77;0.70;;;20.20;45.50;;;;;;5061653;27;91236;-59
2023/01/15 00:12:26;;;;;;;1.10;0.67;;;20.20;45.60;;;;;;5061081;27;94158;-59
2023/01/15 00:14:56;;;;;;;0.70;0.70;;;20.20;45.60;;;;;;5060982;27;93901;-59
2023/01/15 00:17:25;;;;;;;0.83;0.67;;;20.20;45.60;;;;;;5060803;27;92969;-59
2023/01/15 00:19:53;;;;;;;0.70;0.70;;;20.20;45.60;;;;;;5061370;27;92140;-59
2023/01/15 00:22:22;;;;;;;0.97;0.77;;;20.20;45.60;;;;;;5060877;27;93205;-59
2023/01/15 00:27:39;;;;;;;1.70;0.70;;;20.20;45.60;;;;;;5060114;27;92120;-59
2023/01/15 00:30:08;;;;;;;0.90;0.90;;;20.20;45.60;;;;;;5061055;27;92103;-59
2023/01/15 00:32:36;;;;;;;1.23;0.90;;;20.10;45.50;;;;;;5060772;27;94314;-59
2023/01/15 00:35:05;;;;;;;0.90;0.80;;;20.10;45.50;;;;;;5060909;27;92955;-59
2023/01/15 00:37:34;;;;;;;1.40;0.70;;;20.10;45.50;;;;;;5061163;27;92001;-59
2023/01/15 00:40:02;;;;;;;1.50;0.50;;;20.10;45.50;;;;;;5061108;27;92101;-59
2023/01/15 00:42:30;;;;;;;0.90;0.70;;;20.10;45.50;;;;;;5051413;27;95338;-58
2023/01/15 00:45:04;;;;;;;1.83;0.80;;;20.10;45.50;;;;;;5038661;28;95310;-64
2023/01/15 00:47:32;;;;;;;0.77;0.53;;;20.10;45.50;;;;;;5039231;28;92165;-63
2023/01/15 00:50:01;;;;;;;30.97;19.03;;;20.10;45.50;;;;;;5046126;27;92070;-60
2023/01/15 00:52:29;;;;;;;79.60;42.77;;;20.10;45.50;;;;;;5079378;27;92995;-60
2023/01/15 00:54:58;;;;;;;70.40;35.97;;;20.20;45.70;;;;;;5067587;27;93111;-58
2023/01/15 00:57:26;;;;;;;57.17;29.80;;;20.30;45.80;;;;;;5059286;27;92077;-59
2023/01/15 00:59:54;;;;;;;75.30;37.70;;;20.50;45.90;;;;;;5054842;27;91333;-64
2023/01/15 01:02:22;;;;;;;105.70;51.40;;;20.60;46.60;;;;;;5065795;27;93464;-64
2023/01/15 01:04:50;;;;;;;108.53;49.73;;;20.80;45.90;;;;;;5057035;27;93982;-64
2023/01/15 01:07:18;;;;;;;87.43;46.87;;;21.00;45.90;;;;;;5058163;27;93056;-64
2023/01/15 01:09:46;;;;;;;86.00;42.10;;;21.20;45.80;;;;;;5054730;27;92090;-64
2023/01/15 01:12:15;;;;;;;67.40;40.50;;;21.40;45.80;;;;;;5057959;27;94173;-64
2023/01/15 01:14:43;;;;;;;60.67;34.40;;;21.50;46.30;;;;;;5057572;27;94018;-64
2023/01/15 01:17:11;;;;;;;65.87;32.10;;;21.70;45.50;;;;;;5057958;27;92096;-64
2023/01/15 01:19:39;;;;;;;52.00;28.53;;;22.00;45.50;;;;;;5058259;27;92154;-64
2023/01/15 01:22:07;;;;;;;57.47;28.53;;;22.10;45.30;;;;;;5058168;27;94166;-64
2023/01/15 01:24:35;;;;;;;48.83;26.97;;;22.30;45.30;;;;;;5056347;27;94005;-64
2023/01/15 01:27:04;;;;;;;42.97;23.30;;;22.50;45.20;;;;;;5048192;27;92098;-64
2023/01/15 01:29:33;;;;;;;40.97;21.50;;;22.60;45.00;;;;;;5067141;27;92240;-63
2023/01/15 01:32:01;;;;;;;33.03;18.23;;;22.80;45.00;;;;;;5057033;27;95127;-64
2023/01/15 01:34:29;;;;;;;37.93;19.77;;;22.90;44.80;;;;;;5057662;27;94943;-64
2023/01/15 01:36:58;;;;;;;27.27;16.37;;;23.10;44.80;;;;;;5058098;27;92106;-64
2023/01/15 01:39:26;;;;;;;25.43;15.13;;;23.20;44.70;;;;;;5053188;27;93514;-64
2023/01/15 01:41:54;;;;;;;25.33;14.90;;;23.30;44.60;;;;;;5057612;27;93368;-64
2023/01/15 01:45:01;;;;;;;26.47;15.00;;;23.30;44.40;;;;;;5057872;27;94241;-64
2023/01/15 01:47:30;;;;;;;23.83;12.80;;;23.40;44.40;;;;;;5057796;27;92090;-64
2023/01/15 01:50:00;;;;;;;19.80;12.10;;;23.40;44.30;;;;;;5070667;27;91911;-64
2023/01/15 01:52:30;;;;;;;15.13;10.37;;;23.30;44.30;;;;;;5060231;27;94325;-63
2023/01/15 01:54:58;;;;;;;20.73;10.07;;;23.30;44.30;;;;;;5072921;27;93797;-64
2023/01/15 01:57:26;;;;;;;16.43;9.40;;;23.30;44.30;;;;;;5057628;27;93031;-64
2023/01/15 01:59:54;;;;;;;19.60;8.30;;;23.40;44.30;;;;;;5058532;27;92054;-64
2023/01/15 02:02:23;;;;;;;11.83;7.37;;;23.40;44.20;;;;;;5057691;27;94298;-63
2023/01/15 02:04:51;;;;;;;18.57;8.93;;;23.50;44.20;;;;;;5057861;27;93949;-63
2023/01/15 02:07:19;;;;;;;14.07;7.20;;;23.50;44.10;;;;;;5058570;27;92139;-64
2023/01/15 02:09:47;;;;;;;11.47;6.17;;;23.70;44.70;;;;;;5058909;27;91934;-64
2023/01/15 02:12:19;;;;;;;9.87;5.80;;;23.80;44.00;;;;;;5058189;27;94318;-63
2023/01/15 02:14:51;;;;;;;14.53;6.10;;;23.80;43.80;;;;;;5058581;27;93919;-64
2023/01/15 02:17:20;;;;;;;10.67;5.43;;;24.00;43.80;;;;;;5058633;27;92247;-64
2023/01/15 02:19:59;;;;;;;15.07;4.57;;;24.10;43.70;;;;;;5058031;27;92087;-64
2023/01/15 02:22:31;;;;;;;7.17;5.27;;;24.10;43.60;;;;;;5057702;27;95690;-64
2023/01/15 02:25:04;;;;;;;9.30;3.80;;;24.20;43.50;;;;;;5057863;27;94945;-64
2023/01/15 02:27:34;;;;;;;4.20;3.57;;;24.20;43.40;;;;;;5048000;27;92558;-64
2023/01/15 02:30:03;;;;;;;6.17;3.90;;;24.20;43.40;;;;;;5038007;27;92135;-63
2023/01/15 02:32:34;;;;;;;5.80;3.07;;;24.10;43.40;;;;;;5059571;27;93015;-64
2023/01/15 02:35:04;;;;;;;5.97;3.73;;;24.10;43.40;;;;;;5057424;27;94156;-64
2023/01/15 02:37:34;;;;;;;4.37;2.70;;;24.00;43.30;;;;;;5056734;27;92063;-64
2023/01/15 02:40:02;;;;;;;6.87;3.37;;;23.90;43.40;;;;;;5057918;27;91389;-64
2023/01/15 02:42:30;;;;;;;5.30;2.80;;;23.90;44.10;;;;;;5059435;27;93161;-64
2023/01/15 02:45:00;;;;;;;5.93;2.23;;;23.80;43.40;;;;;;5056397;27;94271;-63
2023/01/15 02:47:30;;;;;;;5.73;3.30;;;23.70;43.40;;;;;;5053319;27;94589;-64
2023/01/15 02:49:59;;;;;;;3.50;2.47;;;23.70;43.50;;;;;;5061125;27;92468;-63
2023/01/15 02:52:29;;;;;;;2.70;2.30;;;23.60;43.40;;;;;;5067002;27;97271;-63
2023/01/15 02:55:00;;;;;;;5.03;2.10;;;23.50;43.40;;;;;;5060181;27;92943;-64
2023/01/15 02:57:29;;;;;;;2.83;2.07;;;23.50;43.50;;;;;;5064785;27;92314;-64
2023/01/15 02:59:58;;;;;;;3.13;2.13;;;23.40;43.40;;;;;;5068265;27;93723;-64
2023/01/15 03:02:28;;;;;;;1.97;1.67;;;23.40;43.50;;;;;;5062851;27;93787;-64
2023/01/15 03:04:57;;;;;;;2.47;1.57;;;23.30;43.50;;;;;;5071291;27;93810;-64
2023/01/15 03:07:26;;;;;;;2.23;1.63;;;23.30;43.50;;;;;;5067770;27;93768;-64
2023/01/15 03:09:54;;;;;;;4.87;1.77;;;23.20;44.10;;;;;;5077614;27;92011;-64
2023/01/15 03:12:24;;;;;;;4.13;1.73;;;23.10;43.40;;;;;;5060188;27;94111;-64
2023/01/15 03:15:01;;;;;;;5.47;2.07;;;23.10;43.50;;;;;;5065116;27;94763;-63
2023/01/15 03:17:33;;;;;;;1.90;1.27;;;23.00;43.40;;;;;;5061080;27;92118;-64
2023/01/15 03:20:05;;;;;;;3.37;1.40;;;22.90;43.50;;;;;;5064193;27;92087;-64
2023/01/15 03:22:34;;;;;;;2.40;1.20;;;22.90;43.50;;;;;;5057783;27;94257;-64
2023/01/15 03:25:03;;;;;;;3.50;1.33;;;22.80;43.50;;;;;;5080339;27;94026;-64
2023/01/15 03:27:32;;;;;;;1.90;1.13;;;22.80;43.50;;;;;;5073465;27;92152;-65
2023/01/15 03:30:03;;;;;;;6.40;1.53;;;22.70;43.50;;;;;;5062172;27;91767;-64
2023/01/15 03:32:32;;;;;;;3.30;1.30;;;22.60;43.50;;;;;;5076602;27;93361;-64
2023/01/15 03:35:02;;;;;;;3.07;0.93;;;22.60;43.50;;;;;;5077953;27;92923;-64
2023/01/15 03:37:30;;;;;;;3.50;1.93;;;22.60;43.50;;;;;;5060595;27;92919;-65
2023/01/15 03:39:58;;;;;;;1.00;0.70;;;22.50;43.40;;;;;;5069120;27;92048;-64
2023/01/15 03:42:33;;;;;;;2.13;1.10;;;22.50;43.50;;;;;;5068238;27;96672;-64
2023/01/15 03:45:03;;;;;;;1.53;1.00;;;22.40;43.40;;;;;;5060146;27;93928;-65
2023/01/15 03:47:39;;;;;;;1.00;0.70;;;22.40;43.50;;;;;;5060844;27;92234;-65
2023/01/15 03:50:10;;;;;;;1.13;1.03;;;22.40;43.50;;;;;;5064244;27;92004;-65
2023/01/15 03:52:42;;;;;;;0.70;0.70;;;22.30;43.40;;;;;;5060304;27;94441;-64
2023/01/15 03:55:13;;;;;;;1.03;0.90;;;22.30;43.50;;;;;;5066989;27;93997;-64
2023/01/15 03:57:42;;;;;;;1.93;0.87;;;22.20;43.40;;;;;;5077500;27;93322;-64
2023/01/15 04:00:13;;;;;;;1.43;1.03;;;22.20;43.40;;;;;;5076483;27;92485;-65
2023/01/15 04:02:42;;;;;;;1.53;1.03;;;22.20;43.50;;;;;;5065493;27;95202;-64
2023/01/15 04:05:10;;;;;;;1.80;0.80;;;22.10;43.40;;;;;;5074445;27;94795;-64
2023/01/15 04:07:38;;;;;;;2.03;1.20;;;22.10;43.50;;;;;;5067751;27;92418;-64
2023/01/15 04:10:08;;;;;;;1.80;0.50;;;22.10;43.50;;;;;;5080596;27;92037;-65
2023/01/15 04:12:36;;;;;;;1.23;0.60;;;22.10;43.50;;;;;;5076524;27;94156;-64
2023/01/15 04:15:05;;;;;;;0.80;0.60;;;22.00;43.40;;;;;;5075967;27;94029;-64
2023/01/15 04:17:33;;;;;;;0.67;0.67;;;22.00;43.50;;;;;;5080341;27;92054;-64
2023/01/15 04:20:02;;;;;;;3.70;1.13;;;22.00;43.50;;;;;;5075194;27;91361;-64
2023/01/15 04:22:30;;;;;;;2.67;0.93;;;21.90;43.50;;;;;;5064632;27;94158;-64
2023/01/15 04:24:58;;;;;;;0.70;0.43;;;21.90;43.50;;;;;;5059371;27;93909;-64
2023/01/15 04:27:26;;;;;;;2.40;0.63;;;22.00;43.50;;;;;;5059827;27;93017;-65
2023/01/15 04:29:54;;;;;;;0.77;0.63;;;21.90;43.50;;;;;;5064730;27;92054;-64
2023/01/15 04:32:22;;;;;;;3.03;0.73;;;21.90;43.50;;;;;;5078422;27;92927;-64
2023/01/15 04:34:50;;;;;;;2.97;0.87;;;21.80;43.40;;;;;;5079714;27;94152;-65
2023/01/15 04:37:20;;;;;;;1.30;0.87;;;21.80;43.40;;;;;;5064764;27;92092;-64
2023/01/15 04:39:48;;;;;;;1.37;0.70;;;21.80;43.40;;;;;;5059853;27;92023;-64
2023/01/15 04:45:01;;;;;;;0.93;0.50;;;21.80;43.50;;;;;;5066195;27;93839;-64
2023/01/15 04:47:30;;;;;;;2.30;0.50;;;22.10;48.30;;;;;;5078130;27;92137;-64
2023/01/15 04:49:58;;;;;;;0.67;0.60;;;22.00;45.20;;;;;;5066314;27;92610;-64
2023/01/15 04:52:27;;;;;;;1.77;0.80;;;21.70;43.50;;;;;;5058819;27;95222;-64
2023/01/15 04:54:55;;;;;;;1.80;0.60;;;21.70;43.60;;;;;;5060622;27;94772;-64
2023/01/15 04:57:23;;;;;;;2.57;0.57;;;21.70;43.60;;;;;;5060003;27;91950;-64
2023/01/15 04:59:51;;;;;;;3.60;1.07;;;21.70;43.60;;;;;;5064165;27;92064;-64
2023/01/15 05:02:19;;;;;;;1.03;0.77;;;21.40;43.40;;;;;;5060363;27;94243;-64
2023/01/15 05:04:47;;;;;;;1.73;0.60;;;21.60;43.50;;;;;;5059127;27;93852;-64
2023/01/15 05:07:15;;;;;;;1.23;0.67;;;21.60;43.60;;;;;;5059186;27;93034;-64
2023/01/15 05:09:46;;;;;;;0.53;0.47;;;21.60;43.70;;;;;;5059746;27;91327;-64
2023/01/15 05:12:14;;;;;;;0.60;0.50;;;21.60;44.30;;;;;;5058536;27;94230;-63
2023/01/15 05:14:42;;;;;;;0.97;0.50;;;21.50;44.30;;;;;;5062771;27;92641;-64
2023/01/15 05:17:10;;;;;;;1.50;0.67;;;21.50;44.10;;;;;;5073925;27;93048;-64
2023/01/15 05:19:38;;;;;;;1.60;0.47;;;21.50;44.40;;;;;;5079208;27;92018;-64
2023/01/15 05:22:06;;;;;;;0.30;0.30;;;21.50;44.20;;;;;;5066065;27;94452;-64
2023/01/15 05:24:34;;;;;;;1.03;0.50;;;21.50;45.40;;;;;;5059340;27;93827;-64
2023/01/15 05:27:04;;;;;;;2.00;0.70;;;21.50;46.00;;;;;;5077741;27;92011;-64
2023/01/15 05:29:32;;;;;;;0.57;0.57;;;21.50;46.40;;;;;;5078558;27;92071;-64
2023/01/15 05:32:00;;;;;;;0.70;0.63;;;21.50;44.50;;;;;;5060063;27;93081;-64
2023/01/15 05:34:28;;;;;;;0.47;0.47;;;21.40;43.50;;;;;;5066560;27;93902;-65
2023/01/15 05:36:56;;;;;;;0.83;0.70;;;21.40;43.70;;;;;;5078976;27;92066;-64
2023/01/15 05:39:24;;;;;;;0.60;0.60;;;21.40;44.40;;;;;;5076564;27;92077;-65
2023/01/15 05:41:52;;;;;;;1.23;0.50;;;21.40;44.50;;;;;;5067631;27;95126;-65
2023/01/15 05:44:23;;;;;;;0.40;0.40;;;21.30;43.60;;;;;;5062116;27;94989;-64
2023/01/15 05:46:52;;;;;;;2.07;0.63;;;21.30;44.70;;;;;;5061129;27;92898;-64
2023/01/15 05:49:22;;;;;;;0.67;0.67;;;21.30;45.50;;;;;;5061851;27;92150;-65
2023/01/15 05:51:50;;;;;;;1.10;0.50;;;21.30;44.80;;;;;;5071740;27;93337;-64
2023/01/15 05:54:20;;;;;;;0.67;0.43;;;21.30;46.10;;;;;;5058029;27;93836;-64
2023/01/15 05:56:48;;;;;;;0.40;0.40;;;21.30;46.60;;;;;;5065937;27;92076;-64
2023/01/15 05:59:16;;;;;;;0.57;0.30;;;21.20;47.20;;;;;;5077972;27;91426;-64
2023/01/15 06:01:46;;;;;;;1.03;0.50;;;21.20;46.30;;;;;;5078024;27;94140;-64
2023/01/15 06:04:14;;;;;;;2.53;0.43;;;21.20;43.50;;;;;;5076420;27;93750;-64
2023/01/15 06:06:42;;;;;;;0.63;0.43;;;21.20;43.70;;;;;;5058034;27;93202;-64
2023/01/15 06:09:10;;;;;;;0.30;0.30;;;21.20;43.50;;;;;;5065091;27;92065;-64
2023/01/15 06:11:38;;;;;;;1.60;0.67;;;21.20;43.50;;;;;;5067057;27;94205;-64
2023/01/15 06:14:06;;;;;;;1.70;0.40;;;21.20;43.50;;;;;;5071284;27;93915;-64
2023/01/15 06:16:34;;;;;;;1.27;0.40;;;21.20;43.50;;;;;;5078406;27;92035;-64
2023/01/15 06:19:04;;;;;;;3.57;0.60;;;21.10;48.80;;;;;;5073285;27;93139;-64
2023/01/15 06:21:32;;;;;;;0.63;0.40;;;21.10;44.30;;;;;;5058128;27;94221;-64
2023/01/15 06:24:00;;;;;;;0.70;0.40;;;21.10;43.50;;;;;;5071585;27;93815;-64
2023/01/15 06:26:28;;;;;;;0.53;0.50;;;21.10;43.60;;;;;;5065417;27;92142;-64
2023/01/15 06:28:56;;;;;;;2.07;0.50;;;21.10;43.50;;;;;;5063283;27;92282;-66
2023/01/15 06:31:25;;;;;;;0.93;0.50;;;21.10;43.50;;;;;;5060764;27;94043;-65
2023/01/15 06:33:54;;;;;;;0.50;0.50;;;21.00;44.20;;;;;;5061352;27;94823;-65
2023/01/15 06:36:26;;;;;;;0.40;0.40;;;21.00;43.60;;;;;;5073142;27;92114;-65
2023/01/15 06:38:54;;;;;;;0.40;0.40;;;20.70;43.30;;;;;;5082301;27;92211;-63
2023/01/15 06:49:42;;;;;;;0.80;0.80;;;20.90;43.60;;;;;;5074418;27;91740;-65
2023/01/15 06:52:11;;;;;;;0.20;0.20;;;20.90;44.00;;;;;;5060722;27;94221;-65
2023/01/15 06:54:39;;;;;;;0.30;0.30;;;20.90;43.60;;;;;;5077559;27;93910;-65
2023/01/15 06:57:07;;;;;;;0.20;0.20;;;20.90;43.60;;;;;;5081916;27;93701;-65
2023/01/15 06:59:35;;;;;;;0.77;0.57;;;20.80;43.70;;;;;;5082367;27;92081;-65
2023/01/15 07:02:03;;;;;;;0.63;0.57;;;20.90;43.60;;;;;;5078215;27;94228;-64
2023/01/15 07:04:31;;;;;;;0.30;0.30;;;20.80;43.50;;;;;;5060938;27;92201;-65
2023/01/15 07:06:59;;;;;;;1.60;0.67;;;20.80;45.00;;;;;;5071643;27;92257;-65
2023/01/15 07:09:29;;;;;;;0.23;0.23;;;20.80;43.50;;;;;;5082042;27;92181;-65
2023/01/15 07:11:58;;;;;;;2.00;0.50;;;20.80;43.50;;;;;;5079686;27;94109;-65
2023/01/15 07:14:26;;;;;;;0.67;0.30;;;20.80;43.50;;;;;;5080504;27;94125;-65
2023/01/15 07:16:55;;;;;;;0.40;0.40;;;20.70;43.50;;;;;;5081031;27;92576;-65
2023/01/15 07:19:23;;;;;;;0.93;0.30;;;20.80;43.70;;;;;;5061294;27;92115;-65
2023/01/15 07:21:51;;;;;;;0.67;0.53;;;20.70;43.70;;;;;;5060449;27;94979;-65
2023/01/15 07:24:19;;;;;;;0.37;0.37;;;20.70;44.40;;;;;;5060884;27;94879;-66
2023/01/15 07:26:48;;;;;;;1.20;0.60;;;20.70;44.00;;;;;;5061727;27;92108;-65
2023/01/15 07:29:16;;;;;;;0.30;0.30;;;20.70;44.50;;;;;;5061469;27;92393;-65
2023/01/15 07:31:44;;;;;;;0.43;0.43;;;20.70;45.80;;;;;;5041901;27;93263;-64
2023/01/15 07:34:12;;;;;;;0.30;0.30;;;20.70;45.60;;;;;;5059155;27;94144;-64
2023/01/15 07:36:40;;;;;;;0.30;0.30;;;20.70;44.70;;;;;;5060642;27;92160;-64
2023/01/15 07:39:09;;;;;;;0.87;0.33;;;20.70;44.90;;;;;;5041759;28;91995;-65
2023/01/15 07:50:01;;;;;;;0.30;0.30;;;20.60;45.90;;;;;;5040549;28;92121;-65
2023/01/15 07:52:29;;;;;;;0.67;0.40;;;20.60;46.00;;;;;;5039637;28;94202;-65
2023/01/15 07:54:57;;;;;;;0.60;0.50;;;20.60;46.80;;;;;;5039446;27;94339;-65
2023/01/15 07:57:25;;;;;;;0.33;0.33;;;20.60;46.50;;;;;;5040293;28;91996;-65
2023/01/15 07:59:54;;;;;;;0.57;0.57;;;20.60;46.60;;;;;;5040278;28;92132;-65
2023/01/15 08:02:22;;;;;;;2.00;0.40;;;20.60;46.70;;;;;;5039738;28;93378;-65
2023/01/15 08:04:51;;;;;;;0.23;0.23;;;20.60;46.10;;;;;;5040214;28;93988;-65
2023/01/15 08:07:19;;;;;;;0.20;0.20;;;20.60;46.40;;;;;;5039620;27;92207;-65
2023/01/15 08:09:47;;;;;;;0.20;0.20;;;20.60;46.10;;;;;;5040069;28;92086;-65
2023/01/15 08:15:13;;;;;;;0.80;0.47;;;20.50;46.60;;;;;;5038879;27;94806;-65
2023/01/15 08:17:43;;;;;;;0.27;0.27;;;20.50;47.20;;;;;;5039930;27;92083;-65
2023/01/15 08:20:12;;;;;;;0.40;0.40;;;20.60;47.10;;;;;;5038944;28;92051;-65
2023/01/15 08:22:40;;;;;;;0.60;0.40;;;20.50;47.50;;;;;;5039128;28;94181;-65
2023/01/15 08:25:09;;;;;;;0.30;0.30;;;20.50;45.50;;;;;;5039188;27;92824;-65
2023/01/15 08:27:37;;;;;;;1.43;0.30;;;20.50;44.00;;;;;;5039185;28;92176;-65
2023/01/15 08:30:08;;;;;;;0.43;0.43;;;20.50;45.30;;;;;;5039514;27;91396;-65
2023/01/15 08:32:36;;;;;;;2.80;0.73;;;20.50;46.40;;;;;;5039467;27;94440;-65
2023/01/15 08:35:05;;;;;;;0.40;0.40;;;20.50;48.80;;;;;;5039424;28;92795;-65
2023/01/15 08:37:33;;;;;;;0.53;0.50;;;20.40;48.60;;;;;;5039076;27;93005;-65
2023/01/15 08:40:01;;;;;;;1.63;0.60;;;20.40;43.80;;;;;;5039322;28;92169;-65
2023/01/15 08:42:29;;;;;;;0.70;0.50;;;20.40;45.30;;;;;;5054295;27;94228;-65
2023/01/15 08:44:57;;;;;;;0.87;0.40;;;20.40;44.10;;;;;;5056187;27;93789;-65
2023/01/15 08:47:26;;;;;;;0.30;0.30;;;20.30;45.30;;;;;;5039051;27;92136;-65
2023/01/15 08:49:54;;;;;;;0.33;0.33;;;20.40;47.00;;;;;;5039478;27;92075;-65
2023/01/15 08:52:23;;;;;;;0.50;0.50;;;20.40;47.60;;;;;;5052316;27;94135;-65
2023/01/15 08:54:51;;;;;;;1.13;0.43;;;20.40;47.30;;;;;;5057410;27;93880;-65
2023/01/15 08:57:18;;;;;;;0.40;0.40;;;20.40;43.80;;;;;;5046477;27;92134;-65
2023/01/15 08:59:47;;;;;;;0.40;0.40;;;20.40;44.80;;;;;;5039705;28;92138;-65
2023/01/15 09:02:16;;;;;;;0.40;0.40;;;20.40;45.50;;;;;;5056134;27;95216;-65
2023/01/15 09:04:45;;;;;;;0.47;0.40;;;20.40;45.70;;;;;;5059427;27;94686;-65
2023/01/15 09:07:15;;;;;;;1.50;0.60;;;20.30;47.10;;;;;;5059290;27;92095;-64
2023/01/15 09:09:43;;;;;;;0.60;0.40;;;20.30;44.40;;;;;;5058773;27;92135;-65
2023/01/15 09:12:12;;;;;;;0.20;0.20;;;20.30;45.20;;;;;;5059651;27;94075;-65
2023/01/15 09:14:40;;;;;;;0.20;0.20;;;20.30;44.00;;;;;;5040094;27;93522;-65
2023/01/15 09:17:29;;;;;;;1.30;0.73;;;20.30;44.70;;;;;;5039960;27;92181;-65
2023/01/15 09:19:58;;;;;;;0.73;0.60;;;20.30;45.00;;;;;;5057630;27;91368;-65
2023/01/15 09:22:29;;;;;;;0.23;0.23;;;20.30;45.50;;;;;;5058508;27;94296;-65
2023/01/15 09:24:58;;;;;;;0.30;0.30;;;20.30;44.80;;;;;;5037852;27;93918;-65
2023/01/15 09:27:26;;;;;;;2.20;0.67;;;20.30;47.40;;;;;;5038284;28;93066;-65
2023/01/15 09:29:54;;;;;;;1.10;0.90;;;20.30;45.70;;;;;;5038913;28;92165;-65
2023/01/15 09:32:22;;;;;;;0.60;0.50;;;20.30;45.00;;;;;;5038136;28;93632;-65
2023/01/15 09:34:50;;;;;;;0.70;0.50;;;20.20;48.80;;;;;;5038019;28;94243;-64
2023/01/15 09:37:19;;;;;;;1.17;0.40;;;20.20;46.40;;;;;;5038476;28;92090;-65
2023/01/15 09:39:48;;;;;;;0.37;0.37;;;20.30;45.30;;;;;;5037608;27;92278;-65
2023/01/15 09:42:28;;;;;;;0.60;0.53;;;20.30;44.70;;;;;;5038168;28;94195;-65
2023/01/15 09:45:17;;;;;;;1.00;0.77;;;20.20;44.80;;;;;;5038051;28;93944;-65
2023/01/15 09:47:53;;;;;;;0.57;0.50;;;20.20;45.20;;;;;;5038577;27;91937;-65
2023/01/15 09:50:25;;;;;;;0.60;0.47;;;20.20;45.20;;;;;;5054216;27;93455;-66
2023/01/15 09:53:16;;;;;;;0.60;0.40;;;20.20;45.30;;;;;;5056091;27;95159;-65
2023/01/15 09:55:46;;;;;;;0.73;0.73;;;20.20;45.60;;;;;;5012155;27;95311;-65
2023/01/15 09:58:15;;;;;;;2.77;0.93;;;20.20;45.60;;;;;;5058937;27;92120;-65
2023/01/15 10:00:44;;;;;;;1.97;0.70;;;20.20;45.90;;;;;;5055862;27;92125;-65
2023/01/15 10:03:18;;;;;;;1.10;0.50;;;20.20;45.60;;;;;;5041461;27;93495;-65
2023/01/15 10:05:48;;;;;;;0.47;0.47;;;20.20;45.80;;;;;;5045128;27;93773;-65
2023/01/15 10:08:19;;;;;;;0.97;0.70;;;20.20;46.20;;;;;;5039739;27;92121;-67
2023/01/15 10:10:48;;;;;;;0.40;0.40;;;20.20;46.00;;;;;;5038799;27;91484;-65
2023/01/15 10:13:19;;;;;;;1.27;0.80;;;20.20;45.40;;;;;;5037886;27;94197;-65
2023/01/15 10:15:47;;;;;;;1.77;0.50;;;20.20;46.00;;;;;;5052516;27;93811;-65
2023/01/15 10:18:16;;;;;;;1.60;0.73;;;20.20;45.60;;;;;;5043377;27;93040;-65
2023/01/15 10:20:52;;;;;;;0.60;0.60;;;20.20;46.40;;;;;;5043681;27;92094;-65
2023/01/15 10:23:33;;;;;;;2.30;1.10;;;20.20;46.40;;;;;;5037620;27;94347;-65
2023/01/15 10:26:03;;;;;;;1.73;0.50;;;20.20;46.50;;;;;;5053178;27;92705;-65
2023/01/15 10:28:40;;;;;;;0.63;0.63;;;20.10;46.40;;;;;;5057005;27;92099;-65
2023/01/15 10:31:12;;;;;;;1.00;0.60;;;20.20;46.40;;;;;;5057600;27;92073;-65
2023/01/15 10:33:55;;;;;;;0.60;0.60;;;20.20;46.40;;;;;;5055957;27;94291;-65
2023/01/15 10:36:24;;;;;;;1.00;0.90;;;20.10;46.30;;;;;;5046549;27;93877;-65
2023/01/15 10:38:57;;;;;;;2.90;0.87;;;20.10;46.90;;;;;;5058399;27;91978;-66
2023/01/15 10:41:41;;;;;;;1.00;0.77;;;20.10;46.20;;;;;;5056333;27;92118;-65
2023/01/15 10:44:11;;;;;;;1.40;0.73;;;20.10;46.50;;;;;;5055433;27;95131;-65
2023/01/15 10:46:39;;;;;;;1.00;0.60;;;20.10;46.90;;;;;;5038096;27;93140;-65
2023/01/15 10:49:12;;;;;;;1.07;0.50;;;20.10;46.30;;;;;;5054245;27;91976;-64
2023/01/15 10:51:42;;;;;;;1.80;0.83;;;20.10;46.60;;;;;;5038931;27;91984;-65
2023/01/15 10:54:17;;;;;;;3.13;0.70;;;20.10;46.40;;;;;;5041961;27;92887;-65
2023/01/15 10:56:47;;;;;;;0.87;0.60;;;20.00;46.70;;;;;;5048386;27;93911;-65
2023/01/15 10:59:16;;;;;;;0.63;0.63;;;20.10;46.90;;;;;;5057624;27;92147;-65
2023/01/15 11:01:44;;;;;;;0.67;0.67;;;20.10;47.00;;;;;;5046993;27;91423;-65
2023/01/15 11:04:13;;;;;;;1.17;0.80;;;20.00;47.40;;;;;;5050932;27;93337;-65
2023/01/15 11:06:41;;;;;;;2.30;0.60;;;20.10;47.10;;;;;;5050304;27;93973;-65
2023/01/15 11:09:15;;;;;;;3.27;0.93;;;20.20;47.50;;;;;;5052130;27;93105;-65
2023/01/15 11:20:10;;;;;;;4.37;1.30;;;20.10;47.50;;;;;;5041514;27;91981;-65
2023/01/15 11:22:38;;;;;;;1.70;1.17;;;20.10;47.50;;;;;;5059709;27;92192;-65
2023/01/15 11:25:09;;;;;;;1.23;0.80;;;20.00;48.40;;;;;;5081406;27;92899;-65
2023/01/15 11:27:38;;;;;;;0.60;0.60;;;20.10;48.30;;;;;;5059984;27;93892;-65
2023/01/15 11:30:25;;;;;;;2.00;1.27;;;20.00;48.90;;;;;;5060879;27;92035;-65
2023/01/15 11:32:55;;;;;;;0.60;0.60;;;20.00;47.10;;;;;;5058524;27;92031;-65
2023/01/15 11:35:23;;;;;;;1.80;0.73;;;20.00;46.70;;;;;;5058943;27;95155;-65
2023/01/15 11:38:02;;;;;;;0.90;0.73;;;20.00;46.40;;;;;;5048382;27;94720;-65
2023/01/15 11:40:30;;;;;;;3.57;1.37;;;20.00;46.20;;;;;;5045721;27;92177;-64
2023/01/15 11:51:21;;;;;;;0.70;0.63;;;20.30;46.80;;;;;;5040419;28;92039;-65
2023/01/15 11:53:51;;;;;;;2.83;0.80;;;20.40;46.50;;;;;;5040534;28;91363;-65
2023/01/15 11:56:22;;;;;;;1.33;0.50;;;20.60;46.60;;;;;;5039273;28;94178;-65
2023/01/15 11:58:53;;;;;;;0.60;0.60;;;20.80;46.70;;;;;;5040665;27;93861;-65
2023/01/15 12:01:24;;;;;;;0.70;0.53;;;21.00;46.60;;;;;;5043710;27;93113;-65
2023/01/15 12:03:53;;;;;;;0.83;0.60;;;21.20;47.10;;;;;;5056815;27;92113;-65
2023/01/15 12:06:21;;;;;;;2.10;0.90;;;21.40;46.40;;;;;;5065123;27;93042;-65
2023/01/15 12:08:50;;;;;;;0.33;0.33;;;21.60;46.30;;;;;;5060085;27;93919;-64
2023/01/15 12:11:36;;;;;;;0.83;0.70;;;21.80;46.20;;;;;;5080745;27;92119;-64
2023/01/15 12:14:15;;;;;;;0.83;0.53;;;22.00;46.40;;;;;;5067951;27;92026;-64
2023/01/15 12:16:46;;;;;;;1.07;0.50;;;22.10;46.50;;;;;;5059318;27;94645;-65
2023/01/15 12:19:17;;;;;;;0.80;0.70;;;22.40;46.80;;;;;;5060326;27;93980;-65
2023/01/15 12:21:59;;;;;;;0.97;0.70;;;22.50;46.90;;;;;;5060101;27;92072;-63
2023/01/15 12:25:01;;;;;;;0.67;0.57;;;22.70;47.20;;;;;;5059512;27;92127;-65
2023/01/15 12:27:37;;;;;;;2.10;1.17;;;;;;;;;;5038596;27;95376;-65
2023/01/15 12:30:14;;;;;;;0.50;0.50;;;23.00;69.10;;;;;;5049938;27;94845;-64
2023/01/15 12:32:43;;;;;;;1.83;0.60;;;22.80;62.80;;;;;;5060158;27;92013;-62
2023/01/15 12:35:16;;;;;;;0.67;0.40;;;23.20;60.20;;;;;;5059777;27;92191;-64
2023/01/15 12:37:45;;;;;;;1.70;0.70;;;23.40;53.70;;;;;;5059509;27;93988;-64
2023/01/15 12:40:19;;;;;;;1.23;0.57;;;23.60;58.80;;;;;;5059886;27;93947;-63
2023/01/15 12:45:37;;;;;;;0.57;0.57;;;23.70;49.60;;;;;;5060068;27;91258;-64
2023/01/15 12:48:12;;;;;;;1.43;0.50;;;23.70;54.20;;;;;;5059318;27;94165;-62
2023/01/15 12:50:43;;;;;;;1.30;1.03;;;23.90;45.40;;;;;;5059553;27;93718;-63
2023/01/15 12:53:15;;;;;;;3.23;0.70;;;23.90;46.00;;;;;;5059340;27;92965;-63
2023/01/15 12:55:47;;;;;;;1.80;1.10;;;24.00;48.90;;;;;;5059174;27;92099;-62
2023/01/15 12:58:21;;;;;;;3.03;1.37;;;24.10;53.40;;;;;;5059134;27;94261;-63
2023/01/15 13:00:50;;;;;;;2.27;1.60;;;24.20;46.50;;;;;;5058619;27;93790;-63
2023/01/15 13:03:23;;;;;;;3.23;2.13;;;24.30;52.30;;;;;;5073169;27;91949;-63
2023/01/15 13:05:52;;;;;;;2.97;2.23;;;24.40;52.30;;;;;;5049243;27;92077;-62
2023/01/15 13:08:23;;;;;;;2.70;1.97;;;24.40;53.00;;;;;;5059079;27;92435;-63
2023/01/15 13:10:51;;;;;;;7.53;3.27;;;24.50;53.20;;;;;;5047712;27;93809;-61
2023/01/15 13:13:21;;;;;;;4.43;3.30;;;24.60;51.80;;;;;;5067178;27;92167;-60
2023/01/15 13:15:58;;;;;;;4.63;2.97;;;24.70;48.50;;;;;;5077452;27;92164;-62
2023/01/15 13:18:29;;;;;;;6.80;4.67;;;24.80;56.50;;;;;;5058080;27;95080;-58
2023/01/15 13:20:57;;;;;;;5.87;3.80;;;24.90;49.30;;;;;;5059019;27;94685;-55
2023/01/15 13:23:38;;;;;;;6.17;4.33;;;25.00;52.00;;;;;;5058938;27;92190;-56
2023/01/15 13:26:12;;;;;;;6.00;4.60;;;25.00;52.50;;;;;;5059554;27;92233;-57
2023/01/15 13:28:51;;;;;;;8.30;4.67;;;25.00;52.20;;;;;;5058684;27;93200;-59
2023/01/15 13:31:34;;;;;;;6.63;4.00;;;24.90;51.20;;;;;;5056721;27;93942;-59
2023/01/15 13:34:03;;;;;;;8.23;5.47;;;24.90;53.30;;;;;;5057734;27;92151;-59
2023/01/15 13:36:33;;;;;;;10.23;4.63;;;25.00;54.90;;;;;;5080027;27;91304;-59
2023/01/15 13:39:02;;;;;;;7.33;4.93;;;25.00;54.60;;;;;;5061745;27;93147;-60
2023/01/15 13:44:18;;;;;;;7.27;4.73;;;25.00;47.10;;;;;;5038319;28;93035;-59
2023/01/15 13:46:48;;;;;;;4.77;3.50;;;25.00;48.30;;;;;;5044266;27;92218;-58